Time;durP1;ratioP1;P1;durP2;ratioP2;P2;SDS_P1;SDS_P2;PMS_P1;PMS_P2;Temp;Humidity;BMP_temperature;BMP_pressure;BME280_temperature;BME280_humidity;BME280_pressure;Samples;Min_cycle;Max_cycle;Signal;HPM_P1;HPM_P2
2023/01/23 09:55:55;;;;;;;57.88;35.08;;;4.30;99.90;;;;;;5051535;28;20861;-61
2023/01/23 09:58:30;;;;;;;62.45;36.67;;;4.20;99.90;;;;;;5050040;28;20029;-63
2023/01/23 10:00:56;;;;;;;55.60;35.58;;;4.40;99.90;;;;;;5050690;28;20116;-60
2023/01/23 10:03:28;;;;;;;61.80;39.00;;;4.50;99.90;;;;;;5049387;28;20445;-66
2023/01/23 10:06:17;;;;;;;61.10;38.28;;;4.80;99.90;;;;;;5048374;28;20379;-63
2023/01/23 10:09:10;;;;;;;42.83;29.75;;;5.00;99.90;;;;;;5046927;28;20036;-63
2023/01/23 10:11:55;;;;;;;38.40;28.30;;;5.30;99.90;;;;;;5047431;28;20064;-65
2023/01/23 10:14:48;;;;;;;43.50;31.13;;;5.60;99.90;;;;;;5045306;28;20044;-63
2023/01/23 10:17:17;;;;;;;56.50;41.00;;;5.80;99.90;;;;;;5047201;28;20021;-67
2023/01/23 10:19:58;;;;;;;75.28;50.42;;;5.80;99.90;;;;;;5048982;28;20025;-64
2023/01/23 10:22:40;;;;;;;69.18;46.47;;;5.70;99.90;;;;;;5048968;28;20075;-64
2023/01/23 10:25:19;;;;;;;56.72;40.55;;;5.70;99.90;;;;;;5048128;28;21012;-63
2023/01/23 10:27:48;;;;;;;49.08;35.45;;;5.70;99.90;;;;;;5048965;28;20022;-61
2023/01/23 10:30:28;;;;;;;40.00;30.40;;;5.80;99.90;;;;;;5029861;28;20026;-60
2023/01/23 10:33:08;;;;;;;38.00;29.23;;;6.00;99.90;;;;;;5028945;28;20021;-64
2023/01/23 10:35:46;;;;;;;44.00;32.33;;;6.20;99.90;;;;;;5028965;28;20061;-63
2023/01/23 10:38:33;;;;;;;37.67;28.60;;;6.50;99.90;;;;;;5028588;28;20060;-67
2023/01/23 10:41:18;;;;;;;41.72;29.50;;;6.60;99.90;;;;;;5027105;28;20119;-65
2023/01/23 10:43:47;;;;;;;36.47;28.58;;;6.60;99.90;;;;;;5027551;28;20388;-66
2023/01/23 10:46:15;;;;;;;37.28;27.85;;;6.70;99.90;;;;;;5028738;28;20018;-61
2023/01/23 10:48:44;;;;;;;29.60;23.45;;;6.70;99.90;;;;;;5029011;28;20080;-63
2023/01/23 10:51:26;;;;;;;33.28;25.35;;;6.90;99.90;;;;;;5027384;28;20024;-63
2023/01/23 10:54:07;;;;;;;28.17;22.63;;;7.00;99.90;;;;;;5027040;28;20042;-62
2023/01/23 10:56:38;;;;;;;27.83;20.70;;;7.10;99.90;;;;;;5027347;28;20112;-61
2023/01/23 10:59:05;;;;;;;47.83;35.72;;;7.20;99.90;;;;;;5027031;28;20018;-64
2023/01/23 11:01:33;;;;;;;38.58;31.02;;;7.30;99.90;;;;;;5029191;28;20018;-65
2023/01/23 11:04:19;;;;;;;36.10;28.98;;;7.40;99.90;;;;;;5028339;28;20133;-67
2023/01/23 11:07:02;;;;;;;36.50;28.55;;;7.30;99.90;;;;;;5015883;28;20026;-60
2023/01/23 11:09:29;;;;;;;38.10;29.50;;;7.30;99.90;;;;;;5016076;28;20045;-68
2023/01/23 11:12:03;;;;;;;35.85;27.85;;;7.20;99.90;;;;;;5014244;28;20052;-62
2023/01/23 11:14:29;;;;;;;33.05;26.67;;;7.20;99.90;;;;;;5014552;28;20044;-64
2023/01/23 11:17:12;;;;;;;29.15;23.40;;;7.20;99.90;;;;;;5014776;28;20467;-63
2023/01/23 11:19:38;;;;;;;27.45;22.70;;;7.30;99.90;;;;;;5014481;28;20029;-64
2023/01/23 11:22:21;;;;;;;37.25;29.27;;;7.30;99.90;;;;;;5013783;28;20018;-67
2023/01/23 11:24:47;;;;;;;33.42;25.95;;;7.40;99.90;;;;;;5013027;28;20109;-63
2023/01/23 11:27:25;;;;;;;44.15;36.15;;;7.30;99.90;;;;;;5014344;28;20117;-65
2023/01/23 11:30:44;;;;;;;57.92;43.38;;;7.20;99.90;;;;;;5014913;28;20057;-60
2023/01/23 11:33:16;;;;;;;59.90;44.90;;;7.00;99.90;;;;;;5012031;28;20026;-66
2023/01/23 11:35:59;;;;;;;54.75;43.05;;;6.70;99.90;;;;;;5010950;28;20507;-67
2023/01/23 11:38:30;;;;;;;72.10;50.10;;;6.60;99.90;;;;;;5014677;28;20045;-65
2023/01/23 11:40:56;;;;;;;60.08;44.38;;;6.60;99.90;;;;;;5014814;28;20049;-66
2023/01/23 11:43:22;;;;;;;54.15;41.00;;;6.60;99.90;;;;;;5015424;28;20029;-67
2023/01/23 11:45:54;;;;;;;44.35;35.33;;;6.80;99.90;;;;;;5015335;28;20479;-64
2023/01/23 11:48:38;;;;;;;47.20;36.30;;;7.00;99.90;;;;;;5009835;28;20484;-67
2023/01/23 11:51:29;;;;;;;;;;;7.20;99.90;;;;;;5007925;28;20490;-63
